createdAt,value
2018-09-29T00:00:45.989Z,102390.34
2018-09-29T00:03:15.672Z,102391.83
2018-09-29T00:05:45.343Z,102388.75
2018-09-29T00:08:15.096Z,102393.02
2018-09-29T00:10:44.814Z,102390.66
2018-09-29T00:13:14.529Z,102394.20
2018-09-29T00:15:44.293Z,102388.96
2018-09-29T00:18:14.009Z,102384.50
2018-09-29T00:20:43.761Z,102383.41
2018-09-29T00:23:13.417Z,102387.17
2018-09-29T00:25:43.242Z,102381.52
2018-09-29T00:28:13.021Z,102374.48
2018-09-29T00:30:42.699Z,102382.70
2018-09-29T00:33:12.582Z,102364.19
2018-09-29T00:35:42.219Z,102365.18
2018-09-29T00:38:12.017Z,102365.97
2018-09-29T00:40:41.664Z,102369.34
2018-09-29T00:43:11.420Z,102364.27
2018-09-29T00:45:41.212Z,102362.41
2018-09-29T00:48:11.098Z,102373.46
2018-09-29T00:50:40.801Z,102372.59
2018-09-29T00:53:10.506Z,102371.70
2018-09-29T00:55:40.168Z,102375.14
2018-09-29T00:58:09.841Z,102375.73
2018-09-29T01:00:39.573Z,102369.22
2018-09-29T01:03:09.262Z,102372.47
2018-09-29T01:05:38.986Z,102374.03
2018-09-29T01:08:08.641Z,102372.23
2018-09-29T01:10:38.325Z,102371.44
2018-09-29T01:13:08.545Z,102367.53
2018-09-29T01:15:38.421Z,102371.91
2018-09-29T01:18:08.782Z,102367.84
2018-09-29T01:20:38.505Z,102363.43
2018-09-29T01:23:08.169Z,102369.67
2018-09-29T01:25:37.877Z,102365.91
2018-09-29T01:28:07.687Z,102369.57
2018-09-29T01:30:37.348Z,102370.45
2018-09-29T01:33:07.317Z,102369.99
2018-09-29T01:35:37.015Z,102363.73
2018-09-29T01:38:06.985Z,102358.56
2018-09-29T01:40:36.649Z,102368.14
2018-09-29T01:43:06.515Z,102361.56
2018-09-29T01:45:36.243Z,102355.11
2018-09-29T01:48:06.068Z,102353.92
2018-09-29T01:50:35.797Z,102354.50
2018-09-29T01:53:05.472Z,102359.02
2018-09-29T01:55:35.394Z,102356.02
2018-09-29T01:58:05.328Z,102356.69
2018-09-29T02:00:35.041Z,102361.52
2018-09-29T02:03:10.668Z,102355.53
2018-09-29T02:05:41.727Z,102354.60
2018-09-29T02:08:11.419Z,102346.75
2018-09-29T02:10:41.053Z,102344.23
2018-09-29T02:13:10.789Z,102348.97
2018-09-29T02:15:40.470Z,102353.41
2018-09-29T02:18:10.228Z,102352.12
2018-09-29T02:20:39.950Z,102353.67
2018-09-29T02:23:09.656Z,102357.53
2018-09-29T02:25:39.437Z,102362.53
2018-09-29T02:28:09.135Z,102361.69
2018-09-29T02:30:38.841Z,102360.66
2018-09-29T02:33:08.506Z,102362.09
2018-09-29T02:35:38.242Z,102361.66
2018-09-29T02:38:08.046Z,102362.66
2018-09-29T02:40:37.721Z,102361.69
2018-09-29T02:43:07.589Z,102365.01
2018-09-29T02:45:37.218Z,102363.84
2018-09-29T02:48:07.120Z,102365.70
2018-09-29T02:50:36.936Z,102371.25
2018-09-29T02:53:06.714Z,102371.64
2018-09-29T02:55:36.398Z,102367.25
2018-09-29T02:58:06.120Z,102371.59
2018-09-29T03:00:36.112Z,102370.34
2018-09-29T03:03:05.898Z,102367.28
2018-09-29T03:05:35.609Z,102367.68
2018-09-29T03:08:05.329Z,102368.69
2018-09-29T03:10:35.041Z,102371.08
2018-09-29T03:13:04.726Z,102366.55
2018-09-29T03:15:34.380Z,102370.30
2018-09-29T03:18:04.127Z,102362.83
2018-09-29T03:20:33.750Z,102367.52
2018-09-29T03:23:03.596Z,102365.34
2018-09-29T03:25:33.238Z,102366.13
2018-09-29T03:28:03.001Z,102370.38
2018-09-29T03:30:32.650Z,102376.11
2018-09-29T03:33:02.341Z,102374.00
2018-09-29T03:35:32.238Z,102374.66
2018-09-29T03:38:01.949Z,102372.72
2018-09-29T03:40:31.722Z,102366.73
2018-09-29T03:43:01.401Z,102370.41
2018-09-29T03:45:31.052Z,102363.77
2018-09-29T03:48:00.769Z,102361.43
2018-09-29T03:50:30.423Z,102359.66
2018-09-29T03:53:00.217Z,102357.36
2018-09-29T03:55:29.817Z,102355.96
2018-09-29T03:57:59.499Z,102360.75
2018-09-29T04:00:29.113Z,102360.30
2018-09-29T04:02:58.884Z,102354.63
2018-09-29T04:05:28.558Z,102353.50
2018-09-29T04:07:58.172Z,102359.16
2018-09-29T04:10:27.952Z,102359.16
2018-09-29T04:12:57.792Z,102352.22
2018-09-29T04:15:27.521Z,102354.53
2018-09-29T04:17:57.331Z,102351.73
2018-09-29T04:20:27.081Z,102352.40
2018-09-29T04:22:56.832Z,102353.19
2018-09-29T04:25:26.726Z,102355.82
2018-09-29T04:27:56.454Z,102354.20
2018-09-29T04:30:26.125Z,102352.86
2018-09-29T04:32:55.869Z,102352.80
2018-09-29T04:35:25.483Z,102358.48
2018-09-29T04:37:55.323Z,102355.98
2018-09-29T04:40:25.018Z,102360.75
2018-09-29T04:42:54.643Z,102359.43
2018-09-29T04:45:24.300Z,102361.90
2018-09-29T04:47:53.906Z,102366.06
2018-09-29T04:50:23.543Z,102364.32
2018-09-29T04:52:53.222Z,102362.88
2018-09-29T04:55:22.896Z,102369.14
2018-09-29T04:57:52.574Z,102368.81
2018-09-29T05:00:22.320Z,102369.56
2018-09-29T05:02:52.062Z,102361.84
2018-09-29T05:05:21.750Z,102363.64
2018-09-29T05:07:51.405Z,102360.75
2018-09-29T05:10:21.373Z,102368.77
2018-09-29T05:12:51.037Z,102371.56
2018-09-29T05:15:20.864Z,102376.30
2018-09-29T05:17:50.488Z,102374.12
2018-09-29T05:20:20.193Z,102370.77
2018-09-29T05:22:49.812Z,102369.88
2018-09-29T05:25:19.528Z,102375.47
2018-09-29T05:27:49.210Z,102381.16
2018-09-29T05:30:18.908Z,102374.27
2018-09-29T05:32:48.590Z,102372.84
2018-09-29T05:35:18.226Z,102379.49
2018-09-29T05:37:47.953Z,102383.34
2018-09-29T05:40:17.664Z,102384.39
2018-09-29T05:42:47.315Z,102388.70
2018-09-29T05:45:17.141Z,102382.52
2018-09-29T05:47:46.962Z,102384.37
2018-09-29T05:50:16.968Z,102388.38
2018-09-29T05:52:46.606Z,102394.47
2018-09-29T05:55:16.396Z,102403.12
2018-09-29T05:57:46.182Z,102405.39
2018-09-29T06:00:16.312Z,102401.83
2018-09-29T06:02:45.890Z,102396.36
2018-09-29T06:05:15.624Z,102399.37
2018-09-29T06:07:46.343Z,102403.98
2018-09-29T06:10:16.444Z,102405.80
2018-09-29T06:12:46.698Z,102402.48
2018-09-29T06:15:16.342Z,102409.30
2018-09-29T06:17:46.129Z,102411.85
2018-09-29T06:20:16.020Z,102421.23
2018-09-29T06:22:45.746Z,102414.96
2018-09-29T06:25:15.537Z,102412.49
2018-09-29T06:27:45.212Z,102410.33
2018-09-29T06:30:15.050Z,102413.13
2018-09-29T06:32:44.924Z,102407.36
2018-09-29T06:35:14.616Z,102408.78
2018-09-29T06:37:44.761Z,102411.20
2018-09-29T06:40:14.478Z,102398.35
2018-09-29T06:42:44.317Z,102401.88
2018-09-29T06:45:14.555Z,102404.22
2018-09-29T06:47:44.295Z,102404.35
2018-09-29T06:50:14.246Z,102408.66
2018-09-29T06:52:44.062Z,102407.48
2018-09-29T06:55:14.118Z,102407.07
2018-09-29T06:57:44.163Z,102411.34
2018-09-29T07:00:13.879Z,102408.55
2018-09-29T07:02:44.193Z,102408.34
2018-09-29T07:05:13.926Z,102402.59
2018-09-29T07:07:43.637Z,102400.06
2018-09-29T07:10:13.470Z,102405.07
2018-09-29T07:12:43.284Z,102401.88
2018-09-29T07:17:48.444Z,102403.56
2018-09-29T07:20:18.304Z,102402.37
2018-09-29T07:22:47.993Z,102405.59
2018-09-29T07:25:17.743Z,102406.48
2018-09-29T07:27:47.452Z,102412.20
2018-09-29T07:30:17.113Z,102412.50
2018-09-29T07:32:46.798Z,102415.78
2018-09-29T07:35:16.644Z,102416.32
2018-09-29T07:37:46.305Z,102415.36
2018-09-29T07:40:16.199Z,102408.01
2018-09-29T07:42:45.854Z,102410.79
2018-09-29T07:45:15.633Z,102408.44
2018-09-29T07:47:45.345Z,102401.74
2018-09-29T07:50:15.003Z,102401.36
2018-09-29T07:52:44.741Z,102404.82
2018-09-29T07:55:14.426Z,102409.10
2018-09-29T07:57:44.140Z,102406.12
2018-09-29T08:00:13.854Z,102402.19
2018-09-29T08:02:43.507Z,102398.97
2018-09-29T08:05:13.252Z,102399.47
2018-09-29T08:07:43.069Z,102401.05
2018-09-29T08:10:12.758Z,102405.16
2018-09-29T08:12:42.422Z,102404.13
2018-09-29T08:15:12.175Z,102394.77
2018-09-29T08:17:41.851Z,102401.61
2018-09-29T08:20:11.558Z,102397.52
2018-09-29T08:22:41.448Z,102391.70
2018-09-29T08:25:11.133Z,102385.61
2018-09-29T08:27:40.902Z,102382.27
2018-09-29T08:30:10.608Z,102382.19
2018-09-29T08:32:40.537Z,102378.81
2018-09-29T08:35:10.284Z,102377.22
2018-09-29T08:37:39.928Z,102379.26
2018-09-29T08:40:09.663Z,102379.22
2018-09-29T08:42:39.389Z,102374.68
2018-09-29T08:45:09.221Z,102374.03
2018-09-29T08:47:38.940Z,102375.52
2018-09-29T08:50:08.743Z,102372.27
2018-09-29T08:52:38.422Z,102373.39
2018-09-29T08:55:08.166Z,102367.28
2018-09-29T08:57:37.918Z,102370.11
2018-09-29T09:00:07.887Z,102369.12
2018-09-29T09:02:37.584Z,102363.25
2018-09-29T09:05:07.341Z,102366.09
2018-09-29T09:07:37.130Z,102371.44
2018-09-29T09:10:06.825Z,102360.11
2018-09-29T09:12:36.582Z,102359.70
2018-09-29T09:15:06.245Z,102360.34
2018-09-29T09:17:35.885Z,102362.91
2018-09-29T09:20:05.810Z,102359.69
2018-09-29T09:22:35.734Z,102352.97
2018-09-29T09:25:05.514Z,102351.16
2018-09-29T09:27:35.217Z,102351.23
2018-09-29T09:30:05.144Z,102342.99
2018-09-29T09:32:34.785Z,102346.59
2018-09-29T09:35:04.537Z,102345.27
2018-09-29T09:37:34.321Z,102339.09
2018-09-29T09:40:04.006Z,102332.56
2018-09-29T09:42:33.938Z,102337.72
2018-09-29T09:45:03.585Z,102333.16
2018-09-29T09:47:33.338Z,102334.70
2018-09-29T09:50:03.134Z,102340.46
2018-09-29T09:52:33.021Z,102328.23
2018-09-29T09:55:02.753Z,102328.15
2018-09-29T09:57:32.601Z,102324.84
2018-09-29T10:00:02.479Z,102310.37
2018-09-29T10:02:37.453Z,102307.73
2018-09-29T10:05:07.561Z,102308.77
2018-09-29T10:07:37.254Z,102302.02
2018-09-29T10:10:07.186Z,102299.42
2018-09-29T10:12:36.876Z,102292.28
2018-09-29T10:15:06.833Z,102291.48
2018-09-29T10:17:37.092Z,102283.00
2018-09-29T10:20:07.290Z,102284.02
2018-09-29T10:22:36.983Z,102274.69
2018-09-29T10:25:06.884Z,102270.39
2018-09-29T10:27:36.805Z,102265.88
2018-09-29T10:30:07.471Z,102262.16
2018-09-29T10:32:37.200Z,102264.70
2018-09-29T10:35:07.245Z,102263.45
2018-09-29T10:37:37.232Z,102259.41
2018-09-29T10:40:07.466Z,102256.78
2018-09-29T10:42:37.111Z,102252.66
2018-09-29T10:45:06.934Z,102239.97
2018-09-29T10:47:36.761Z,102234.64
2018-09-29T10:50:06.636Z,102235.23
2018-09-29T10:52:36.353Z,102229.09
2018-09-29T10:55:06.035Z,102227.70
2018-09-29T10:57:35.808Z,102230.36
2018-09-29T11:00:05.661Z,102224.88
2018-09-29T11:02:35.462Z,102220.14
2018-09-29T11:05:05.329Z,102224.88
2018-09-29T11:07:34.972Z,102221.76
2018-09-29T11:10:04.757Z,102214.23
2018-09-29T11:12:34.561Z,102208.67
2018-09-29T11:15:04.377Z,102201.39
2018-09-29T11:17:34.104Z,102202.78
2018-09-29T11:20:03.875Z,102199.87
2018-09-29T11:22:33.529Z,102192.73
2018-09-29T11:25:03.485Z,102195.61
2018-09-29T11:27:33.236Z,102186.23
2018-09-29T11:30:03.143Z,102182.84
2018-09-29T11:32:33.022Z,102178.45
2018-09-29T11:35:02.935Z,102171.34
2018-09-29T11:37:32.798Z,102174.28
2018-09-29T11:40:02.516Z,102171.98
2018-09-29T11:42:32.307Z,102174.25
2018-09-29T11:45:02.257Z,102162.84
2018-09-29T11:47:31.996Z,102154.38
2018-09-29T11:50:01.794Z,102150.41
2018-09-29T11:52:31.516Z,102143.34
2018-09-29T11:55:01.236Z,102136.20
2018-09-29T11:57:32.298Z,102132.34
2018-09-29T12:00:02.113Z,102126.99
2018-09-29T12:02:32.145Z,102132.30
2018-09-29T12:05:02.009Z,102120.86
2018-09-29T12:07:31.914Z,102120.19
2018-09-29T12:10:01.594Z,102111.94
2018-09-29T12:12:31.337Z,102112.59
2018-09-29T12:15:01.082Z,102112.16
2018-09-29T12:17:30.813Z,102108.00
2018-09-29T12:20:00.528Z,102100.95
2018-09-29T12:22:30.173Z,102095.31
2018-09-29T12:24:59.837Z,102093.19
2018-09-29T12:27:29.602Z,102088.84
2018-09-29T12:29:59.460Z,102085.44
2018-09-29T12:32:29.255Z,102079.11
2018-09-29T12:34:58.983Z,102068.34
2018-09-29T12:37:28.854Z,102072.56
2018-09-29T12:39:58.690Z,102070.27
2018-09-29T12:42:28.397Z,102070.08
2018-09-29T12:44:58.125Z,102068.76
2018-09-29T12:47:27.830Z,102061.14
2018-09-29T12:49:57.492Z,102053.04
2018-09-29T12:52:27.186Z,102051.39
2018-09-29T12:54:57.016Z,102042.72
2018-09-29T12:57:26.697Z,102041.42
2018-09-29T12:59:56.388Z,102040.03
2018-09-29T13:02:26.133Z,102034.52
2018-09-29T13:04:55.859Z,102030.99
2018-09-29T13:07:25.675Z,102032.77
2018-09-29T13:09:55.398Z,102031.36
2018-09-29T13:12:25.092Z,102019.33
2018-09-29T13:14:54.809Z,102014.14
2018-09-29T13:17:24.498Z,102015.81
2018-09-29T13:19:54.222Z,102006.24
2018-09-29T13:22:23.905Z,102003.84
2018-09-29T13:24:53.641Z,101999.22
2018-09-29T13:27:23.367Z,101990.66
2018-09-29T13:29:53.350Z,101991.33
2018-09-29T13:32:23.196Z,101985.87
2018-09-29T13:34:53.026Z,101985.99
2018-09-29T13:37:22.754Z,101989.44
2018-09-29T13:39:52.558Z,101977.52
2018-09-29T13:42:22.464Z,101974.60
2018-09-29T13:44:52.157Z,101976.94
2018-09-29T13:47:22.053Z,101968.32
2018-09-29T13:49:52.118Z,101967.14
2018-09-29T13:52:21.994Z,101958.66
2018-09-29T13:54:51.748Z,101957.75
2018-09-29T13:57:21.493Z,101955.50
2018-09-29T13:59:51.277Z,101948.89
2018-09-29T14:02:21.151Z,101948.54
2018-09-29T14:04:50.817Z,101948.86
2018-09-29T14:07:20.834Z,101938.25
2018-09-29T14:09:50.539Z,101936.88
2018-09-29T14:12:20.187Z,101934.28
2018-09-29T14:14:49.907Z,101922.81
2018-09-29T14:17:19.642Z,101922.56
2018-09-29T14:19:49.359Z,101920.89
2018-09-29T14:22:19.013Z,101911.09
2018-09-29T14:24:48.645Z,101914.77
2018-09-29T14:27:18.371Z,101900.51
2018-09-29T14:29:48.146Z,101895.92
2018-09-29T14:32:17.967Z,101893.73
2018-09-29T14:34:47.658Z,101895.17
2018-09-29T14:37:17.472Z,101892.64
2018-09-29T14:39:47.183Z,101883.39
2018-09-29T14:42:17.011Z,101887.56
2018-09-29T14:44:46.762Z,101884.55
2018-09-29T14:47:16.477Z,101877.69
2018-09-29T14:49:46.378Z,101873.62
2018-09-29T14:52:16.113Z,101878.41
2018-09-29T14:54:45.866Z,101869.80
2018-09-29T14:57:15.563Z,101863.35
2018-09-29T14:59:45.241Z,101854.83
2018-09-29T15:02:14.941Z,101863.64
2018-09-29T15:04:44.757Z,101846.24
2018-09-29T15:07:14.739Z,101849.36
2018-09-29T15:09:44.626Z,101843.83
2018-09-29T15:12:14.385Z,101835.77
2018-09-29T15:14:44.334Z,101836.67
2018-09-29T15:17:14.098Z,101827.09
2018-09-29T15:19:43.804Z,101826.69
2018-09-29T15:22:13.516Z,101825.78
2018-09-29T15:24:43.393Z,101828.17
2018-09-29T15:27:13.173Z,101826.77
2018-09-29T15:29:43.092Z,101824.66
2018-09-29T15:32:12.814Z,101819.49
2018-09-29T15:34:42.497Z,101822.92
2018-09-29T15:37:12.237Z,101809.65
2018-09-29T15:39:41.947Z,101817.56
2018-09-29T15:42:11.820Z,101809.56
2018-09-29T15:44:41.585Z,101799.37
2018-09-29T15:47:11.269Z,101806.06
2018-09-29T15:49:41.888Z,101800.70
2018-09-29T15:52:11.732Z,101801.28
2018-09-29T15:54:41.419Z,101804.96
2018-09-29T15:57:11.355Z,101794.04
2018-09-29T15:59:41.102Z,101795.36
2018-09-29T16:02:10.780Z,101794.93
2018-09-29T16:04:40.694Z,101791.84
2018-09-29T16:07:10.400Z,101798.99
2018-09-29T16:09:40.160Z,101785.67
2018-09-29T16:12:10.074Z,101783.98
2018-09-29T16:14:39.759Z,101785.00
2018-09-29T16:17:09.741Z,101774.70
2018-09-29T16:19:39.489Z,101779.01
2018-09-29T16:22:09.420Z,101777.86
2018-09-29T16:24:39.243Z,101767.95
2018-09-29T16:27:08.974Z,101772.01
2018-09-29T16:29:38.661Z,101762.08
2018-09-29T16:32:08.653Z,101759.31
2018-09-29T16:34:39.140Z,101758.40
2018-09-29T16:37:09.020Z,101758.47
2018-09-29T16:39:39.005Z,101757.65
2018-09-29T16:42:09.007Z,101761.23
2018-09-29T16:44:38.791Z,101763.13
2018-09-29T16:47:08.667Z,101758.91
2018-09-29T16:49:38.485Z,101757.67
2018-09-29T16:52:08.350Z,101758.94
2018-09-29T16:54:38.116Z,101751.57
2018-09-29T16:57:07.886Z,101750.70
2018-09-29T16:59:37.594Z,101741.43
2018-09-29T17:02:07.366Z,101743.94
2018-09-29T17:04:37.333Z,101740.77
2018-09-29T17:07:07.320Z,101745.44
2018-09-29T17:09:37.313Z,101738.42
2018-09-29T17:12:07.837Z,101742.99
2018-09-29T17:14:37.557Z,101739.22
2018-09-29T17:17:07.826Z,101740.44
2018-09-29T17:19:37.815Z,101738.31
2018-09-29T17:22:07.609Z,101742.05
2018-09-29T17:24:37.399Z,101741.27
2018-09-29T17:27:07.162Z,101738.73
2018-09-29T17:29:36.921Z,101737.52
2018-09-29T17:32:06.686Z,101735.37
2018-09-29T17:34:36.342Z,101728.77
2018-09-29T17:37:06.295Z,101727.45
2018-09-29T17:39:36.041Z,101725.73
2018-09-29T17:42:05.780Z,101728.05
2018-09-29T17:44:35.605Z,101731.33
2018-09-29T17:47:05.744Z,101730.48
2018-09-29T17:49:35.590Z,101733.53
2018-09-29T17:52:05.422Z,101735.72
2018-09-29T17:54:35.203Z,101728.39
2018-09-29T17:57:05.149Z,101733.89
2018-09-29T17:59:34.881Z,101726.80
2018-09-29T18:02:04.662Z,101727.09
2018-09-29T18:04:34.507Z,101728.89
2018-09-29T18:07:04.150Z,101726.56
2018-09-29T18:09:33.912Z,101727.52
2018-09-29T18:12:03.658Z,101730.05
2018-09-29T18:14:33.490Z,101732.42
2018-09-29T18:17:03.416Z,101736.44
2018-09-29T18:19:33.230Z,101741.63
2018-09-29T18:22:02.984Z,101743.39
2018-09-29T18:24:32.936Z,101738.63
2018-09-29T18:27:02.681Z,101736.62
2018-09-29T18:29:32.671Z,101731.01
2018-09-29T18:32:02.683Z,101734.51
2018-09-29T18:34:32.510Z,101733.17
2018-09-29T18:37:02.176Z,101735.03
2018-09-29T18:39:31.896Z,101731.14
2018-09-29T18:42:01.648Z,101726.67
2018-09-29T18:44:31.376Z,101723.85
2018-09-29T18:47:01.178Z,101721.33
2018-09-29T18:49:30.850Z,101719.27
2018-09-29T18:52:00.595Z,101724.58
2018-09-29T18:54:30.504Z,101729.02
2018-09-29T18:57:00.261Z,101718.77
2018-09-29T18:59:30.070Z,101721.63
2018-09-29T19:01:59.809Z,101721.63
2018-09-29T19:04:29.578Z,101718.80
2018-09-29T19:06:59.229Z,101712.06
2018-09-29T19:09:28.950Z,101715.20
2018-09-29T19:11:58.652Z,101714.45
2018-09-29T19:14:28.439Z,101711.25
2018-09-29T19:16:58.160Z,101714.66
2018-09-29T19:19:27.923Z,101712.41
2018-09-29T19:21:57.662Z,101710.77
2018-09-29T19:24:27.583Z,101708.46
2018-09-29T19:26:57.326Z,101709.34
2018-09-29T19:29:27.046Z,101711.59
2018-09-29T19:31:57.000Z,101718.40
2018-09-29T19:34:26.702Z,101714.55
2018-09-29T19:36:56.434Z,101713.01
2018-09-29T19:39:26.425Z,101710.28
2018-09-29T19:41:56.193Z,101710.75
2018-09-29T19:44:26.031Z,101702.36
2018-09-29T19:46:55.759Z,101704.73
2018-09-29T19:49:25.415Z,101709.69
2018-09-29T19:51:55.323Z,101703.95
2018-09-29T19:54:25.201Z,101697.81
2018-09-29T19:56:55.048Z,101704.49
2018-09-29T19:59:24.833Z,101707.28
2018-09-29T20:01:54.535Z,101704.64
2018-09-29T20:04:24.590Z,101698.30
2018-09-29T20:06:54.375Z,101700.47
2018-09-29T20:09:24.076Z,101695.88
2018-09-29T20:11:53.841Z,101698.72
2018-09-29T20:14:23.616Z,101695.05
2018-09-29T20:16:54.510Z,101701.66
2018-09-29T20:19:24.189Z,101694.33
2018-09-29T20:21:53.885Z,101695.00
2018-09-29T20:24:23.720Z,101693.04
2018-09-29T20:26:53.347Z,101689.62
2018-09-29T20:29:23.167Z,101692.55
2018-09-29T20:31:52.942Z,101684.41
2018-09-29T20:34:25.587Z,101689.31
2018-09-29T20:36:55.464Z,101686.94
2018-09-29T20:39:25.399Z,101690.23
2018-09-29T20:41:55.350Z,101678.00
2018-09-29T20:44:25.250Z,101681.56
2018-09-29T20:46:55.003Z,101677.80
2018-09-29T20:49:24.952Z,101671.05
2018-09-29T20:51:54.537Z,101673.67
2018-09-29T20:54:24.432Z,101672.57
2018-09-29T20:56:54.116Z,101677.37
2018-09-29T20:59:23.896Z,101677.22
2018-09-29T21:01:53.658Z,101674.17
2018-09-29T21:04:23.415Z,101673.83
2018-09-29T21:06:53.173Z,101669.73
2018-09-29T21:09:22.893Z,101668.89
2018-09-29T21:11:52.694Z,101667.44
2018-09-29T21:14:22.438Z,101662.35
2018-09-29T21:16:52.463Z,101664.14
2018-09-29T21:19:22.205Z,101663.03
2018-09-29T21:21:51.950Z,101648.17
2018-09-29T21:24:21.643Z,101655.24
2018-09-29T21:26:51.348Z,101645.91
2018-09-29T21:29:21.186Z,101648.17
2018-09-29T21:31:50.994Z,101637.54
2018-09-29T21:34:20.679Z,101639.96
2018-09-29T21:36:50.365Z,101645.58
2018-09-29T21:39:20.120Z,101645.99
2018-09-29T21:41:49.882Z,101641.25
2018-09-29T21:44:19.749Z,101630.47
2018-09-29T21:46:49.444Z,101627.39
2018-09-29T21:49:19.337Z,101622.09
2018-09-29T21:51:49.420Z,101628.84
2018-09-29T21:54:19.145Z,101624.50
2018-09-29T21:56:48.823Z,101621.61
2018-09-29T21:59:18.568Z,101618.31
2018-09-29T22:01:48.320Z,101608.89
2018-09-29T22:04:17.962Z,101616.37
2018-09-29T22:06:47.673Z,101616.02
2018-09-29T22:09:21.540Z,101614.20
2018-09-29T22:11:51.921Z,101610.45
2018-09-29T22:14:21.600Z,101616.33
2018-09-29T22:16:51.296Z,101612.13
2018-09-29T22:19:21.049Z,101612.31
2018-09-29T22:21:50.788Z,101604.68
2018-09-29T22:24:20.545Z,101615.58
2018-09-29T22:26:50.401Z,101608.48
2018-09-29T22:29:20.086Z,101603.27
2018-09-29T22:31:49.944Z,101608.14
2018-09-29T22:34:19.590Z,101600.22
2018-09-29T22:36:49.391Z,101594.74
2018-09-29T22:39:19.226Z,101590.31
2018-09-29T22:41:48.986Z,101585.66
2018-09-29T22:44:18.688Z,101582.97
2018-09-29T22:46:48.384Z,101576.66
2018-09-29T22:49:17.998Z,101577.72
2018-09-29T22:51:47.862Z,101580.64
2018-09-29T22:54:17.605Z,101581.55
2018-09-29T22:56:47.381Z,101582.20
2018-09-29T22:59:17.013Z,101574.25
2018-09-29T23:01:46.716Z,101573.38
2018-09-29T23:04:16.427Z,101568.38
2018-09-29T23:06:46.119Z,101563.08
2018-09-29T23:09:15.878Z,101559.78
2018-09-29T23:11:45.592Z,101559.78
2018-09-29T23:14:15.277Z,101562.50
2018-09-29T23:16:45.064Z,101566.37
2018-09-29T23:19:14.897Z,101565.73
2018-09-29T23:21:44.489Z,101565.81
2018-09-29T23:24:14.158Z,101562.43
2018-09-29T23:26:43.838Z,101570.58
2018-09-29T23:29:13.630Z,101569.05
2018-09-29T23:31:43.286Z,101568.41
2018-09-29T23:34:12.967Z,101573.73
2018-09-29T23:36:42.707Z,101570.01
2018-09-29T23:39:12.434Z,101572.53
2018-09-29T23:41:42.175Z,101568.27
2018-09-29T23:44:11.868Z,101563.77
2018-09-29T23:46:42.129Z,101565.95
2018-09-29T23:49:11.772Z,101559.83
2018-09-29T23:51:41.518Z,101557.66
2018-09-29T23:54:11.183Z,101556.20
2018-09-29T23:56:40.887Z,101558.95
2018-09-29T23:59:10.886Z,101559.83
